createdAt,value
2018-03-07T00:01:33.229Z,95304.09
2018-03-07T00:04:04.206Z,95310.75
2018-03-07T00:06:35.240Z,95310.88
2018-03-07T00:09:06.215Z,95314.14
2018-03-07T00:11:37.200Z,95318.98
2018-03-07T00:14:08.198Z,95318.19
2018-03-07T00:16:39.209Z,95324.20
2018-03-07T00:19:10.201Z,95325.12
2018-03-07T00:21:41.189Z,95324.07
2018-03-07T00:24:12.181Z,95328.52
2018-03-07T00:26:43.151Z,95326.45
2018-03-07T00:29:14.165Z,95324.23
2018-03-07T00:31:45.148Z,95329.98
2018-03-07T00:34:16.121Z,95326.75
2018-03-07T00:36:47.088Z,95328.06
2018-03-07T00:39:18.092Z,95330.80
2018-03-07T00:41:49.126Z,95330.94
2018-03-07T00:44:20.073Z,95332.77
2018-03-07T00:46:51.097Z,95335.41
2018-03-07T00:49:22.088Z,95339.56
2018-03-07T00:51:53.086Z,95340.24
2018-03-07T00:54:24.097Z,95335.94
2018-03-07T00:56:55.075Z,95334.14
2018-03-07T00:59:26.052Z,95336.75
2018-03-07T01:01:57.027Z,95336.63
2018-03-07T01:04:28.033Z,95333.48
2018-03-07T01:06:59.066Z,95326.17
2018-03-07T01:09:29.986Z,95326.41
2018-03-07T01:12:01.020Z,95323.66
2018-03-07T01:14:31.999Z,95326.89
2018-03-07T01:17:02.956Z,95329.80
2018-03-07T01:19:33.910Z,95332.90
2018-03-07T01:22:04.871Z,95335.08
2018-03-07T01:24:35.875Z,95333.73
2018-03-07T01:27:06.868Z,95335.53
2018-03-07T01:29:37.910Z,95332.39
2018-03-07T01:32:08.902Z,95333.30
2018-03-07T01:34:39.905Z,95334.26
2018-03-07T01:37:10.880Z,95330.80
2018-03-07T01:39:41.849Z,95329.44
2018-03-07T01:42:12.828Z,95334.47
2018-03-07T01:44:50.876Z,95336.61
2018-03-07T01:47:21.852Z,95335.72
2018-03-07T01:49:52.893Z,95336.09
2018-03-07T01:52:23.888Z,95329.53
2018-03-07T01:54:54.859Z,95328.72
2018-03-07T01:57:25.872Z,95327.05
2018-03-07T01:59:56.878Z,95329.83
2018-03-07T02:02:27.863Z,95324.86
2018-03-07T02:04:58.881Z,95324.11
2018-03-07T02:07:29.913Z,95329.82
2018-03-07T02:10:00.885Z,95327.34
2018-03-07T02:12:31.869Z,95321.86
2018-03-07T02:15:02.909Z,95324.22
2018-03-07T02:17:33.862Z,95330.19
2018-03-07T02:20:04.851Z,95325.95
2018-03-07T02:22:35.807Z,95329.57
2018-03-07T02:25:09.760Z,95330.45
2018-03-07T02:27:40.711Z,95328.39
2018-03-07T02:30:11.702Z,95327.19
2018-03-07T02:32:42.709Z,95321.05
2018-03-07T02:35:13.672Z,95324.53
2018-03-07T02:37:44.676Z,95323.06
2018-03-07T02:40:15.652Z,95326.30
2018-03-07T02:42:46.648Z,95327.34
2018-03-07T02:45:17.654Z,95331.52
2018-03-07T02:47:48.644Z,95338.39
2018-03-07T02:50:19.663Z,95339.96
2018-03-07T02:52:50.659Z,95341.89
2018-03-07T02:55:21.649Z,95346.72
2018-03-07T02:57:52.647Z,95345.94
2018-03-07T03:00:23.674Z,95341.49
2018-03-07T03:02:54.645Z,95344.27
2018-03-07T03:05:25.645Z,95343.36
2018-03-07T03:07:56.640Z,95344.06
2018-03-07T03:10:27.646Z,95351.92
2018-03-07T03:12:58.695Z,95355.32
2018-03-07T03:15:29.655Z,95354.64
2018-03-07T03:18:00.673Z,95358.42
2018-03-07T03:20:31.662Z,95360.13
2018-03-07T03:23:02.688Z,95355.77
2018-03-07T03:25:33.669Z,95363.57
2018-03-07T03:28:04.708Z,95365.09
2018-03-07T03:30:35.732Z,95364.66
2018-03-07T03:33:06.679Z,95360.88
2018-03-07T03:35:37.681Z,95359.66
2018-03-07T03:38:08.672Z,95363.97
2018-03-07T03:40:39.701Z,95364.35
2018-03-07T03:43:10.675Z,95359.39
2018-03-07T03:45:41.738Z,95366.45
2018-03-07T03:48:12.697Z,95374.59
2018-03-07T03:50:43.729Z,95379.86
2018-03-07T03:53:14.729Z,95375.72
2018-03-07T03:55:45.767Z,95375.06
2018-03-07T03:58:16.781Z,95370.09
2018-03-07T04:00:47.735Z,95372.94
2018-03-07T04:03:18.764Z,95378.03
2018-03-07T04:05:49.763Z,95380.38
2018-03-07T04:08:20.741Z,95380.30
2018-03-07T04:10:51.724Z,95385.20
2018-03-07T04:13:22.711Z,95384.51
2018-03-07T04:15:53.709Z,95395.14
2018-03-07T04:18:24.693Z,95395.55
2018-03-07T04:20:55.698Z,95401.45
2018-03-07T04:23:26.704Z,95407.95
2018-03-07T04:25:57.713Z,95400.78
2018-03-07T04:28:28.698Z,95405.09
2018-03-07T04:30:59.750Z,95403.92
2018-03-07T04:33:30.750Z,95410.23
2018-03-07T04:36:01.724Z,95412.70
2018-03-07T04:38:32.710Z,95405.83
2018-03-07T04:41:03.745Z,95415.75
2018-03-07T04:43:34.716Z,95416.80
2018-03-07T04:46:05.771Z,95419.81
2018-03-07T04:48:36.759Z,95416.00
2018-03-07T04:51:07.809Z,95429.17
2018-03-07T04:53:38.895Z,95436.34
2018-03-07T04:56:09.856Z,95432.84
2018-03-07T04:58:40.832Z,95434.67
2018-03-07T05:01:11.902Z,95440.02
2018-03-07T05:03:42.859Z,95443.30
2018-03-07T05:06:14.095Z,95440.80
2018-03-07T05:08:45.065Z,95434.27
2018-03-07T05:11:16.090Z,95439.89
2018-03-07T05:13:47.082Z,95440.67
2018-03-07T05:16:18.078Z,95440.91
2018-03-07T05:18:49.060Z,95441.97
2018-03-07T05:21:20.053Z,95443.14
2018-03-07T05:23:51.031Z,95446.64
2018-03-07T05:26:22.005Z,95448.09
2018-03-07T05:28:53.023Z,95453.55
2018-03-07T05:31:23.994Z,95450.94
2018-03-07T05:33:55.066Z,95450.66
2018-03-07T05:36:26.044Z,95458.36
2018-03-07T05:38:57.044Z,95458.09
2018-03-07T05:41:28.026Z,95458.23
2018-03-07T05:43:59.017Z,95459.14
2018-03-07T05:46:30.069Z,95465.63
2018-03-07T05:49:01.060Z,95464.81
2018-03-07T05:51:32.081Z,95469.49
2018-03-07T05:54:03.105Z,95472.91
2018-03-07T05:56:34.084Z,95472.44
2018-03-07T05:59:05.058Z,95479.75
2018-03-07T06:01:36.066Z,95480.13
2018-03-07T06:04:07.014Z,95483.48
2018-03-07T06:06:38.043Z,95489.73
2018-03-07T06:09:09.025Z,95491.13
2018-03-07T06:11:40.028Z,95498.39
2018-03-07T06:14:10.995Z,95492.36
2018-03-07T06:16:41.986Z,95489.97
2018-03-07T06:19:12.994Z,95492.33
2018-03-07T06:21:43.999Z,95498.86
2018-03-07T06:24:15.028Z,95495.27
2018-03-07T06:26:45.995Z,95496.05
2018-03-07T06:29:17.015Z,95504.16
2018-03-07T06:31:48.042Z,95509.75
2018-03-07T06:34:19.069Z,95518.47
2018-03-07T06:36:50.044Z,95520.83
2018-03-07T06:39:21.074Z,95527.46
2018-03-07T06:41:52.024Z,95526.64
2018-03-07T06:44:23.011Z,95534.50
2018-03-07T06:46:54.027Z,95538.96
2018-03-07T06:49:25.044Z,95546.94
2018-03-07T06:51:56.064Z,95545.46
2018-03-07T06:54:27.044Z,95555.09
2018-03-07T06:56:58.052Z,95555.45
2018-03-07T06:59:29.025Z,95565.39
2018-03-07T07:02:00.066Z,95561.41
2018-03-07T07:04:31.070Z,95563.39
2018-03-07T07:07:02.068Z,95568.33
2018-03-07T07:09:33.109Z,95569.13
2018-03-07T07:12:04.120Z,95567.03
2018-03-07T07:14:35.135Z,95565.64
2018-03-07T07:17:06.136Z,95571.99
2018-03-07T07:19:37.132Z,95573.52
2018-03-07T07:22:08.107Z,95574.17
2018-03-07T07:24:39.092Z,95575.91
2018-03-07T07:27:10.036Z,95566.91
2018-03-07T07:29:41.032Z,95574.73
2018-03-07T07:32:12.020Z,95585.12
2018-03-07T07:34:43.043Z,95580.83
2018-03-07T07:37:14.062Z,95597.34
2018-03-07T07:39:45.011Z,95587.64
2018-03-07T07:42:16.033Z,95597.70
2018-03-07T07:44:46.997Z,95603.00
2018-03-07T07:47:18.039Z,95605.28
2018-03-07T07:49:49.011Z,95615.28
2018-03-07T07:52:20.012Z,95604.92
2018-03-07T07:54:51.003Z,95613.05
2018-03-07T07:57:21.998Z,95614.75
2018-03-07T07:59:52.975Z,95617.76
2018-03-07T08:02:23.977Z,95627.98
2018-03-07T08:04:55.018Z,95621.66
2018-03-07T08:07:25.995Z,95627.34
2018-03-07T08:09:57.032Z,95618.93
2018-03-07T08:12:28.070Z,95621.38
2018-03-07T08:14:59.039Z,95621.39
2018-03-07T08:17:30.029Z,95623.98
2018-03-07T08:20:01.073Z,95623.65
2018-03-07T08:22:32.036Z,95616.58
2018-03-07T08:25:03.073Z,95625.98
2018-03-07T08:27:34.098Z,95622.36
2018-03-07T08:30:05.065Z,95632.99
2018-03-07T08:32:36.094Z,95634.20
2018-03-07T08:35:07.087Z,95632.70
2018-03-07T08:37:38.110Z,95635.84
2018-03-07T08:40:09.085Z,95636.39
2018-03-07T08:42:40.100Z,95640.00
2018-03-07T08:45:11.146Z,95639.34
2018-03-07T08:47:42.201Z,95631.46
2018-03-07T08:50:13.220Z,95630.17
2018-03-07T08:52:44.185Z,95620.24
2018-03-07T08:55:15.169Z,95628.78
2018-03-07T08:57:46.161Z,95619.38
2018-03-07T09:00:17.116Z,95615.92
2018-03-07T09:02:48.073Z,95609.11
2018-03-07T09:05:19.061Z,95600.00
2018-03-07T09:07:50.020Z,95615.16
2018-03-07T09:10:21.065Z,95615.42
2018-03-07T09:12:52.051Z,95620.67
2018-03-07T09:15:23.056Z,95621.97
2018-03-07T09:17:54.004Z,95618.45
2018-03-07T09:20:24.977Z,95625.12
2018-03-07T09:22:55.982Z,95627.70
2018-03-07T09:25:26.973Z,95630.05
2018-03-07T09:27:57.955Z,95625.09
2018-03-07T09:30:28.896Z,95636.13
2018-03-07T09:32:59.851Z,95638.84
2018-03-07T09:35:30.901Z,95634.75
2018-03-07T09:38:01.898Z,95644.81
2018-03-07T09:40:32.845Z,95650.64
2018-03-07T09:43:03.913Z,95659.06
2018-03-07T09:45:34.890Z,95654.60
2018-03-07T09:48:05.882Z,95664.56
2018-03-07T09:50:36.941Z,95661.50
2018-03-07T09:53:07.918Z,95654.03
2018-03-07T09:55:38.926Z,95661.22
2018-03-07T09:58:09.952Z,95670.27
2018-03-07T10:00:40.942Z,95671.84
2018-03-07T10:03:11.926Z,95675.03
2018-03-07T10:05:42.921Z,95677.94
2018-03-07T10:08:13.953Z,95679.56
2018-03-07T10:10:44.949Z,95679.16
2018-03-07T10:13:15.936Z,95678.37
2018-03-07T10:15:46.949Z,95674.39
2018-03-07T10:18:17.901Z,95682.91
2018-03-07T10:20:48.919Z,95688.36
2018-03-07T10:23:19.976Z,95688.50
2018-03-07T10:25:50.963Z,95694.05
2018-03-07T10:28:21.963Z,95693.38
2018-03-07T10:30:52.947Z,95682.31
2018-03-07T10:33:25.899Z,95686.42
2018-03-07T10:35:56.864Z,95695.02
2018-03-07T10:38:27.860Z,95699.08
2018-03-07T10:40:58.870Z,95704.11
2018-03-07T10:43:29.878Z,95707.80
2018-03-07T10:46:00.904Z,95715.01
2018-03-07T10:48:31.907Z,95716.77
2018-03-07T10:51:02.879Z,95715.05
2018-03-07T10:53:33.843Z,95719.48
2018-03-07T10:56:04.845Z,95724.97
2018-03-07T10:58:35.809Z,95720.80
2018-03-07T11:01:06.815Z,95728.02
2018-03-07T11:03:37.769Z,95724.84
2018-03-07T11:06:08.772Z,95720.81
2018-03-07T11:08:39.736Z,95708.34
2018-03-07T11:11:10.737Z,95711.35
2018-03-07T11:13:41.727Z,95720.11
2018-03-07T11:16:12.715Z,95725.48
2018-03-07T11:18:43.709Z,95732.59
2018-03-07T11:21:14.727Z,95729.98
2018-03-07T11:23:45.746Z,95745.02
2018-03-07T11:26:16.778Z,95744.06
2018-03-07T11:28:47.749Z,95751.22
2018-03-07T11:31:18.810Z,95745.29
2018-03-07T11:33:49.805Z,95742.87
2018-03-07T11:36:20.822Z,95739.48
2018-03-07T11:38:51.776Z,95738.14
2018-03-07T11:41:22.799Z,95747.41
2018-03-07T11:43:53.834Z,95750.90
2018-03-07T11:46:24.808Z,95747.53
2018-03-07T11:48:55.796Z,95754.50
2018-03-07T11:51:26.808Z,95752.61
2018-03-07T11:53:57.874Z,95743.13
2018-03-07T11:56:28.868Z,95742.73
2018-03-07T11:58:59.882Z,95744.12
2018-03-07T12:01:30.902Z,95742.18
2018-03-07T12:04:01.909Z,95743.08
2018-03-07T12:06:32.964Z,95734.77
2018-03-07T12:09:04.015Z,95738.91
2018-03-07T12:11:35.030Z,95735.42
2018-03-07T12:14:06.018Z,95740.69
2018-03-07T12:16:37.027Z,95748.73
2018-03-07T12:19:08.042Z,95742.49
2018-03-07T12:21:39.093Z,95737.12
2018-03-07T12:24:10.057Z,95733.75
2018-03-07T12:26:41.071Z,95735.72
2018-03-07T12:29:12.065Z,95735.70
2018-03-07T12:31:43.054Z,95726.72
2018-03-07T12:34:14.004Z,95726.14
2018-03-07T12:36:45.049Z,95716.37
2018-03-07T12:39:16.013Z,95723.56
2018-03-07T12:41:47.053Z,95718.89
2018-03-07T12:44:18.000Z,95721.42
2018-03-07T12:46:48.990Z,95716.27
2018-03-07T12:49:20.007Z,95713.30
2018-03-07T12:51:50.994Z,95723.84
2018-03-07T12:54:22.006Z,95721.52
2018-03-07T12:56:53.001Z,95718.18
2018-03-07T12:59:23.985Z,95718.18
2018-03-07T13:01:55.043Z,95716.30
2018-03-07T13:04:26.040Z,95717.47
2018-03-07T13:06:57.199Z,95717.59
2018-03-07T13:09:28.139Z,95722.56
2018-03-07T13:11:59.105Z,95725.84
2018-03-07T13:14:30.116Z,95727.00
2018-03-07T13:17:01.108Z,95733.64
2018-03-07T13:19:32.095Z,95730.73
2018-03-07T13:22:03.140Z,95732.56
2018-03-07T13:24:34.128Z,95728.75
2018-03-07T13:27:05.101Z,95732.42
2018-03-07T13:29:36.123Z,95725.84
2018-03-07T13:32:07.118Z,95736.20
2018-03-07T13:34:38.101Z,95733.37
2018-03-07T13:37:09.128Z,95733.71
2018-03-07T13:39:40.087Z,95737.12
2018-03-07T13:42:11.081Z,95739.68
2018-03-07T13:44:42.078Z,95741.03
2018-03-07T13:47:13.093Z,95746.06
2018-03-07T13:49:44.078Z,95742.23
2018-03-07T13:52:15.143Z,95747.54
2018-03-07T13:54:46.081Z,95743.17
2018-03-07T13:57:17.094Z,95744.03
2018-03-07T13:59:48.041Z,95749.17
2018-03-07T14:02:19.080Z,95754.09
2018-03-07T14:04:50.027Z,95752.83
2018-03-07T14:07:21.049Z,95756.53
2018-03-07T14:09:52.028Z,95751.23
2018-03-07T14:12:23.036Z,95749.68
2018-03-07T14:14:54.073Z,95749.96
2018-03-07T14:17:25.056Z,95759.14
2018-03-07T14:19:56.065Z,95756.75
2018-03-07T14:22:27.060Z,95756.66
2018-03-07T14:24:58.060Z,95755.34
2018-03-07T14:27:29.095Z,95756.03
2018-03-07T14:30:00.090Z,95763.34
2018-03-07T14:32:31.085Z,95767.51
2018-03-07T14:35:02.127Z,95771.71
2018-03-07T14:37:33.132Z,95773.81
2018-03-07T14:40:04.089Z,95771.95
2018-03-07T14:42:35.087Z,95777.09
2018-03-07T14:45:06.091Z,95779.40
2018-03-07T14:47:37.053Z,95779.09
2018-03-07T14:50:08.033Z,95787.48
2018-03-07T14:52:39.020Z,95781.27
2018-03-07T14:55:10.009Z,95790.61
2018-03-07T14:57:41.025Z,95790.06
2018-03-07T15:00:12.030Z,95792.08
2018-03-07T15:02:43.001Z,95797.03
2018-03-07T15:05:13.996Z,95792.17
2018-03-07T15:07:44.990Z,95791.27
2018-03-07T15:10:15.998Z,95788.89
2018-03-07T15:12:46.985Z,95790.01
2018-03-07T15:15:17.988Z,95791.13
2018-03-07T15:17:48.998Z,95794.19
2018-03-07T15:20:19.979Z,95795.91
2018-03-07T15:22:51.011Z,95791.55
2018-03-07T15:25:22.039Z,95794.22
2018-03-07T15:27:53.058Z,95792.95
2018-03-07T15:30:24.026Z,95801.34
2018-03-07T15:32:55.014Z,95797.50
2018-03-07T15:35:25.996Z,95808.52
2018-03-07T15:37:56.994Z,95812.50
2018-03-07T15:40:28.008Z,95810.97
2018-03-07T15:42:58.948Z,95806.56
2018-03-07T15:45:29.936Z,95811.14
2018-03-07T15:48:00.910Z,95813.95
2018-03-07T15:50:31.934Z,95818.54
2018-03-07T15:53:02.917Z,95817.73
2018-03-07T15:55:33.970Z,95818.95
2018-03-07T15:58:05.008Z,95816.70
2018-03-07T16:00:35.979Z,95817.73
2018-03-07T16:03:06.983Z,95821.47
2018-03-07T16:05:37.927Z,95825.03
2018-03-07T16:08:08.902Z,95829.84
2018-03-07T16:10:39.867Z,95832.41
2018-03-07T16:13:10.853Z,95831.09
2018-03-07T16:15:41.850Z,95834.94
2018-03-07T16:18:12.795Z,95836.22
2018-03-07T16:20:43.803Z,95838.17
2018-03-07T16:23:14.777Z,95838.38
2018-03-07T16:25:45.844Z,95843.71
2018-03-07T16:28:16.812Z,95843.48
2018-03-07T16:30:47.825Z,95853.02
2018-03-07T16:33:18.803Z,95863.38
2018-03-07T16:35:49.785Z,95862.19
2018-03-07T16:38:20.766Z,95863.26
2018-03-07T16:40:51.754Z,95866.52
2018-03-07T16:43:22.724Z,95878.86
2018-03-07T16:45:53.732Z,95880.80
2018-03-07T16:48:24.712Z,95884.48
2018-03-07T16:50:55.714Z,95885.31
2018-03-07T16:53:26.717Z,95893.38
2018-03-07T16:55:57.718Z,95893.62
2018-03-07T16:58:28.679Z,95897.66
2018-03-07T17:00:59.693Z,95900.55
2018-03-07T17:03:30.718Z,95906.42
2018-03-07T17:06:01.772Z,95908.63
2018-03-07T17:08:32.752Z,95905.81
2018-03-07T17:11:03.782Z,95910.67
2018-03-07T17:13:34.740Z,95910.41
2018-03-07T17:16:05.755Z,95919.55
2018-03-07T17:18:36.759Z,95914.56
2018-03-07T17:21:07.778Z,95929.73
2018-03-07T17:26:40.854Z,95939.77
2018-03-07T17:29:11.869Z,95938.76
2018-03-07T17:31:42.885Z,95944.27
2018-03-07T17:34:13.918Z,95944.27
2018-03-07T17:36:44.896Z,95951.48
2018-03-07T17:39:15.887Z,95949.92
2018-03-07T17:41:46.835Z,95959.37
2018-03-07T17:44:17.821Z,95957.27
2018-03-07T17:46:48.854Z,95961.59
2018-03-07T17:49:19.861Z,95971.70
2018-03-07T17:51:50.931Z,95981.30
2018-03-07T17:54:21.917Z,95985.53
2018-03-07T17:56:52.957Z,95985.40
2018-03-07T17:59:24.038Z,95990.91
2018-03-07T18:01:55.077Z,95992.09
2018-03-07T18:04:26.087Z,95998.04
2018-03-07T18:06:57.159Z,95995.69
2018-03-07T18:09:28.140Z,95999.23
2018-03-07T18:11:59.180Z,96001.48
2018-03-07T18:14:30.183Z,96010.67
2018-03-07T18:17:01.254Z,96011.63
2018-03-07T18:19:32.340Z,96010.45
2018-03-07T18:22:03.372Z,96011.51
2018-03-07T18:24:34.369Z,96015.34
2018-03-07T18:27:05.358Z,96015.64
2018-03-07T18:29:36.366Z,96013.28
2018-03-07T18:32:07.397Z,96022.33
2018-03-07T18:34:38.408Z,96027.70
2018-03-07T18:37:09.437Z,96029.81
2018-03-07T18:39:40.416Z,96030.73
2018-03-07T18:42:11.384Z,96032.20
2018-03-07T18:44:42.372Z,96043.22
2018-03-07T18:47:13.374Z,96033.14
2018-03-07T18:49:44.384Z,96036.84
2018-03-07T18:52:15.367Z,96038.70
2018-03-07T18:54:46.384Z,96038.05
2018-03-07T18:57:17.377Z,96039.13
2018-03-07T18:59:48.362Z,96040.69
2018-03-07T19:02:19.408Z,96041.73
2018-03-07T19:04:51.382Z,96048.05
2018-03-07T19:07:22.433Z,96047.00
2018-03-07T19:09:53.416Z,96041.91
2018-03-07T19:12:24.402Z,96050.06
2018-03-07T19:14:55.427Z,96055.82
2018-03-07T19:17:26.423Z,96056.10
2018-03-07T19:19:57.451Z,96061.47
2018-03-07T19:22:28.475Z,96061.48
2018-03-07T19:24:59.505Z,96064.63
2018-03-07T19:27:30.486Z,96059.02
2018-03-07T19:30:01.569Z,96067.78
2018-03-07T19:32:32.597Z,96071.33
2018-03-07T19:35:03.591Z,96074.88
2018-03-07T19:37:34.628Z,96078.15
2018-03-07T19:40:05.605Z,96080.38
2018-03-07T19:42:36.618Z,96073.56
2018-03-07T19:45:07.618Z,96076.58
2018-03-07T19:47:38.630Z,96078.93
2018-03-07T19:50:09.651Z,96088.88
2018-03-07T19:52:40.632Z,96082.34
2018-03-07T19:55:11.641Z,96089.27
2018-03-07T19:57:42.697Z,96092.03
2018-03-07T20:00:13.722Z,96094.27
2018-03-07T20:02:44.708Z,96094.24
2018-03-07T20:05:15.711Z,96101.34
2018-03-07T20:07:46.727Z,96105.91
2018-03-07T20:10:17.698Z,96112.32
2018-03-07T20:12:48.700Z,96111.02
2018-03-07T20:15:19.717Z,96113.39
2018-03-07T20:17:50.743Z,96115.23
2018-03-07T20:20:21.717Z,96118.49
2018-03-07T20:22:52.716Z,96122.94
2018-03-07T20:25:23.732Z,96122.81
2018-03-07T20:27:54.755Z,96127.08
2018-03-07T20:30:25.759Z,96128.92
2018-03-07T20:32:56.754Z,96130.32
2018-03-07T20:35:27.786Z,96131.64
2018-03-07T20:37:58.745Z,96136.20
2018-03-07T20:40:29.754Z,96140.77
2018-03-07T20:43:00.739Z,96146.16
2018-03-07T20:45:31.763Z,96144.81
2018-03-07T20:48:02.790Z,96146.63
2018-03-07T20:50:33.750Z,96152.13
2018-03-07T20:53:04.755Z,96152.37
2018-03-07T20:55:35.784Z,96153.28
2018-03-07T20:58:06.795Z,96163.08
2018-03-07T21:00:37.836Z,96164.25
2018-03-07T21:03:08.897Z,96171.03
2018-03-07T21:05:39.916Z,96178.59
2018-03-07T21:08:10.934Z,96184.17
2018-03-07T21:10:41.963Z,96185.02
2018-03-07T21:13:12.927Z,96184.58
2018-03-07T21:15:43.907Z,96187.05
2018-03-07T21:18:14.907Z,96191.46
2018-03-07T21:20:45.960Z,96201.74
2018-03-07T21:23:16.939Z,96206.03
2018-03-07T21:25:47.948Z,96210.05
2018-03-07T21:28:18.999Z,96206.25
2018-03-07T21:30:50.030Z,96208.98
2018-03-07T21:33:21.227Z,96207.19
2018-03-07T21:35:52.091Z,96212.25
2018-03-07T21:38:23.138Z,96217.23
2018-03-07T21:40:54.134Z,96218.52
2018-03-07T21:43:25.153Z,96221.30
2018-03-07T21:45:56.141Z,96227.73
2018-03-07T21:48:27.213Z,96228.13
2018-03-07T21:50:58.204Z,96229.27
2018-03-07T21:53:29.249Z,96227.23
2018-03-07T21:56:00.267Z,96237.27
2018-03-07T21:58:31.261Z,96233.66
2018-03-07T22:01:02.334Z,96237.16
2018-03-07T22:03:33.333Z,96237.64
2018-03-07T22:06:04.312Z,96240.22
2018-03-07T22:08:35.339Z,96233.98
2018-03-07T22:11:06.305Z,96243.98
2018-03-07T22:13:37.289Z,96242.12
2018-03-07T22:16:08.308Z,96258.16
2018-03-07T22:18:39.277Z,96258.00
2018-03-07T22:21:10.305Z,96259.89
2018-03-07T22:23:41.317Z,96262.16
2018-03-07T22:26:12.324Z,96263.89
2018-03-07T22:28:43.323Z,96263.38
2018-03-07T22:31:14.335Z,96269.98
2018-03-07T22:33:45.312Z,96259.93
2018-03-07T22:36:16.365Z,96266.66
2018-03-07T22:38:47.351Z,96269.26
2018-03-07T22:41:18.398Z,96274.44
2018-03-07T22:43:49.427Z,96278.98
2018-03-07T22:46:20.442Z,96277.12
2018-03-07T22:48:51.450Z,96281.55
2018-03-07T22:51:22.421Z,96286.17
2018-03-07T22:53:53.467Z,96285.84
2018-03-07T22:56:24.470Z,96293.50
2018-03-07T22:58:55.475Z,96298.66
2018-03-07T23:01:26.445Z,96304.85
2018-03-07T23:03:57.466Z,96300.84
2018-03-07T23:06:28.450Z,96303.16
2018-03-07T23:08:59.485Z,96317.98
2018-03-07T23:11:30.490Z,96313.19
2018-03-07T23:14:01.514Z,96322.95
2018-03-07T23:16:32.497Z,96318.69
2018-03-07T23:19:03.571Z,96334.84
2018-03-07T23:21:34.589Z,96330.52
2018-03-07T23:24:05.561Z,96329.01
2018-03-07T23:26:36.559Z,96335.58
2018-03-07T23:29:07.544Z,96341.14
2018-03-07T23:31:38.510Z,96351.16
2018-03-07T23:34:09.534Z,96346.62
2018-03-07T23:36:40.546Z,96358.77
2018-03-07T23:39:11.540Z,96363.31
2018-03-07T23:41:42.527Z,96361.98
2018-03-07T23:44:13.498Z,96366.16
2018-03-07T23:46:44.451Z,96370.16
2018-03-07T23:49:15.454Z,96372.55
2018-03-07T23:51:46.485Z,96369.20
2018-03-07T23:54:17.452Z,96366.97
2018-03-07T23:56:48.430Z,96370.39
2018-03-07T23:59:19.412Z,96368.41
